Time;durP1;ratioP1;P1;durP2;ratioP2;P2;SDS_P1;SDS_P2;PMS_P1;PMS_P2;Temp;Humidity;BMP_temperature;BMP_pressure;BME280_temperature;BME280_humidity;BME280_pressure;Samples;Min_cycle;Max_cycle;Signal;HPM_P1;HPM_P2
2023/08/10 00:00:59;;;;;;;3.45;1.90;;;;;;;;;;5047877;28;20048;-69
2023/08/10 00:03:25;;;;;;;7.07;2.00;;;14.10;99.90;;;;;;5038594;28;20494;-69
2023/08/10 00:05:50;;;;;;;4.47;1.90;;;14.30;99.90;;;;;;5047928;28;20044;-68
2023/08/10 00:08:16;;;;;;;4.70;1.80;;;;;;;;;;5066341;28;20032;-68
2023/08/10 00:10:42;;;;;;;5.03;1.63;;;;;;;;;;5065669;28;20070;-68
2023/08/10 00:13:08;;;;;;;4.50;1.92;;;;;;;;;;5032622;28;20044;-68
2023/08/10 00:15:34;;;;;;;4.13;1.80;;;;;;;;;;5031129;28;20056;-68
2023/08/10 00:18:00;;;;;;;5.30;2.10;;;;;;;;;;5031229;28;20056;-69
2023/08/10 00:20:26;;;;;;;3.70;1.35;;;14.30;99.90;;;;;;5065913;28;20723;-68
2023/08/10 00:22:52;;;;;;;7.63;2.25;;;;;;;;;;5046696;28;20057;-68
2023/08/10 00:25:18;;;;;;;5.88;2.20;;;;;;;;;;5048986;28;20040;-68
2023/08/10 00:27:44;;;;;;;4.90;2.00;;;;;;;;;;5042697;28;20069;-69
2023/08/10 00:30:10;;;;;;;6.05;2.22;;;;;;;;;;5055044;28;20072;-68
2023/08/10 00:32:36;;;;;;;7.43;2.10;;;14.40;99.90;;;;;;5063607;28;20041;-68
2023/08/10 00:35:02;;;;;;;8.23;2.08;;;14.30;99.90;;;;;;5044628;28;20507;-68
2023/08/10 00:37:28;;;;;;;6.95;1.98;;;;;;;;;;5062680;28;20044;-68
2023/08/10 00:39:54;;;;;;;4.55;2.00;;;;;;;;;;5051825;28;20059;-68
2023/08/10 00:42:21;;;;;;;5.35;1.50;;;;;;;;;;5040871;28;20044;-68
2023/08/10 00:44:46;;;;;;;5.95;2.05;;;14.30;99.90;;;;;;5053092;28;20490;-68
2023/08/10 00:47:14;;;;;;;9.02;2.03;;;;;;;;;;5047374;28;20049;-68
2023/08/10 00:49:40;;;;;;;2.47;1.63;;;;;;;;;;5048453;28;20075;-68
2023/08/10 00:52:06;;;;;;;4.20;1.90;;;14.10;99.90;;;;;;5048511;28;20387;-68
2023/08/10 00:54:32;;;;;;;3.70;1.92;;;;;;;;;;5047997;28;20466;-67
2023/08/10 00:56:59;;;;;;;5.25;2.03;;;14.30;99.90;;;;;;5047665;28;20044;-68
2023/08/10 00:59:27;;;;;;;5.82;2.35;;;14.30;99.90;;;;;;5061528;28;20072;-69
2023/08/10 01:01:53;;;;;;;6.82;2.35;;;;;;;;;;5046819;28;20493;-68
2023/08/10 01:04:19;;;;;;;7.65;2.20;;;;;;;;;;5046227;28;20083;-68
2023/08/10 01:07:10;;;;;;;4.18;2.00;;;14.20;99.90;;;;;;5038705;28;20081;-69
2023/08/10 01:09:36;;;;;;;5.47;2.03;;;;;;;;;;5044113;28;20051;-69
2023/08/10 01:12:13;;;;;;;5.43;1.80;;;13.90;99.90;;;;;;5048620;28;20048;-68
2023/08/10 01:14:51;;;;;;;3.63;2.00;;;14.20;99.90;;;;;;5034389;28;20507;-68
2023/08/10 01:17:27;;;;;;;5.57;1.90;;;14.10;99.90;;;;;;5050385;28;20044;-68
2023/08/10 01:19:56;;;;;;;4.63;1.95;;;13.90;99.90;;;;;;5064422;28;20048;-67
2023/08/10 01:22:22;;;;;;;4.30;2.00;;;;;;;;;;5045370;28;20089;-68
2023/08/10 01:25:15;;;;;;;10.02;2.03;;;13.80;99.90;;;;;;5049192;28;20462;-68
2023/08/10 01:27:41;;;;;;;5.43;1.58;;;13.90;99.90;;;;;;5040663;28;20060;-68
2023/08/10 01:30:08;;;;;;;6.05;1.73;;;13.80;99.90;;;;;;5047916;28;20395;-68
2023/08/10 01:32:34;;;;;;;8.43;2.20;;;;;;;;;;5044930;28;20056;-68
2023/08/10 01:35:00;;;;;;;5.32;2.15;;;;;;;;;;5047961;28;20489;-68
2023/08/10 01:37:26;;;;;;;6.88;2.63;;;;;;;;;;5045295;28;20131;-68
2023/08/10 01:39:52;;;;;;;5.95;1.92;;;13.50;99.90;;;;;;5048952;28;20049;-68
2023/08/10 01:42:18;;;;;;;2.80;1.20;;;13.60;99.90;;;;;;5048936;28;20045;-68
2023/08/10 01:44:44;;;;;;;6.55;1.52;;;;;;;;;;5025086;28;20623;-68
2023/08/10 01:47:38;;;;;;;4.75;1.45;;;13.50;99.90;;;;;;5047553;28;20049;-69
2023/08/10 01:50:07;;;;;;;4.53;1.58;;;13.50;99.90;;;;;;5007258;28;20075;-68
2023/08/10 01:52:37;;;;;;;3.90;1.35;;;13.50;99.90;;;;;;5047231;28;20056;-68
2023/08/10 01:55:05;;;;;;;6.85;1.80;;;13.40;99.90;;;;;;5033880;28;20537;-68
2023/08/10 01:57:31;;;;;;;4.32;1.88;;;;;;;;;;5042268;28;20491;-68
2023/08/10 01:59:57;;;;;;;5.55;2.25;;;13.50;99.90;;;;;;5040516;28;20056;-68
2023/08/10 02:02:23;;;;;;;6.05;1.90;;;13.50;99.90;;;;;;5048564;28;20411;-68
2023/08/10 02:04:49;;;;;;;3.63;1.83;;;;;;;;;;5046405;28;20062;-68
2023/08/10 02:07:15;;;;;;;4.78;2.00;;;;;;;;;;5046156;28;20052;-67
2023/08/10 02:09:41;;;;;;;5.82;1.98;;;;;;;;;;5045123;28;20049;-68
2023/08/10 02:12:07;;;;;;;5.40;2.00;;;13.30;99.90;;;;;;5029958;28;20085;-68
2023/08/10 02:14:32;;;;;;;3.22;1.60;;;;;;;;;;5047777;28;20178;-68
2023/08/10 02:16:58;;;;;;;4.30;1.90;;;13.40;99.90;;;;;;5046031;28;20040;-68
2023/08/10 02:19:24;;;;;;;4.30;1.70;;;;;;;;;;5048317;28;20033;-68
2023/08/10 02:21:50;;;;;;;3.72;1.38;;;;;;;;;;5043582;28;20043;-68
2023/08/10 02:24:16;;;;;;;3.42;1.30;;;;;;;;;;5046704;28;20104;-68
2023/08/10 02:26:42;;;;;;;2.83;1.10;;;;;;;;;;5046190;28;20048;-68
2023/08/10 02:29:08;;;;;;;7.28;1.35;;;12.90;99.90;;;;;;5048170;28;20043;-68
2023/08/10 02:31:33;;;;;;;2.97;1.90;;;13.00;99.90;;;;;;5048470;28;20041;-69
2023/08/10 02:33:59;;;;;;;3.60;1.60;;;;;;;;;;5048476;28;20040;-68
2023/08/10 02:36:25;;;;;;;3.90;1.50;;;;;;;;;;5047496;28;20080;-67
2023/08/10 02:38:51;;;;;;;5.40;1.75;;;13.20;99.90;;;;;;5039251;28;20041;-68
2023/08/10 02:41:17;;;;;;;7.00;2.60;;;;;;;;;;5044151;28;20506;-68
2023/08/10 02:43:43;;;;;;;7.25;2.30;;;;;;;;;;5039462;28;20110;-68
2023/08/10 02:46:08;;;;;;;7.07;2.00;;;13.40;99.90;;;;;;5035652;28;20053;-68
2023/08/10 02:48:34;;;;;;;5.47;1.67;;;;;;;;;;5046501;28;20049;-68
2023/08/10 02:51:00;;;;;;;3.90;1.60;;;;;;;;;;5015859;28;20756;-68
2023/08/10 02:53:26;;;;;;;4.28;1.70;;;13.10;99.90;;;;;;5048086;28;20047;-68
2023/08/10 02:55:52;;;;;;;3.28;2.13;;;;;;;;;;5047615;28;20106;-68
2023/08/10 02:58:20;;;;;;;6.95;1.90;;;13.30;99.90;;;;;;5029788;28;20059;-68
2023/08/10 03:00:46;;;;;;;5.50;2.05;;;;;;;;;;5019952;28;20445;-68
2023/08/10 03:03:11;;;;;;;6.88;2.40;;;13.20;99.90;;;;;;5029412;28;20110;-68
2023/08/10 03:05:37;;;;;;;6.32;2.53;;;;;;;;;;5028636;28;20079;-68
2023/08/10 03:08:03;;;;;;;3.35;2.22;;;;;;;;;;5046006;28;20107;-68
2023/08/10 03:10:29;;;;;;;5.15;2.60;;;13.20;99.90;;;;;;5047572;28;20047;-68
2023/08/10 03:12:55;;;;;;;5.30;2.40;;;;;;;;;;5048102;28;20045;-68
2023/08/10 03:15:22;;;;;;;6.97;2.40;;;;;;;;;;5048503;28;20128;-67
2023/08/10 03:17:48;;;;;;;4.63;2.28;;;;;;;;;;5047828;28;20501;-68
2023/08/10 03:20:16;;;;;;;4.43;2.28;;;13.50;99.90;;;;;;5029808;28;20088;-68
2023/08/10 03:22:43;;;;;;;6.50;2.83;;;13.50;99.90;;;;;;5014033;28;20099;-68
2023/08/10 03:25:10;;;;;;;4.47;2.28;;;13.50;99.90;;;;;;5048481;28;20036;-67
2023/08/10 03:27:36;;;;;;;4.68;2.42;;;;;;;;;;5032910;28;20045;-68
2023/08/10 03:30:03;;;;;;;6.72;2.70;;;13.50;99.90;;;;;;5030150;28;20037;-68
2023/08/10 03:32:29;;;;;;;5.68;2.30;;;13.50;99.90;;;;;;5024061;28;20049;-68
2023/08/10 03:34:55;;;;;;;8.95;2.67;;;13.40;99.90;;;;;;5046871;28;20047;-68
2023/08/10 03:37:20;;;;;;;9.57;2.78;;;13.40;99.90;;;;;;5047848;28;20107;-68
2023/08/10 03:39:46;;;;;;;4.88;2.50;;;;;;;;;;5047577;28;20072;-68
2023/08/10 03:42:12;;;;;;;4.82;2.30;;;13.60;99.90;;;;;;5047330;28;20140;-68
2023/08/10 03:44:38;;;;;;;5.25;2.47;;;;;;;;;;5047070;28;20128;-68
2023/08/10 03:47:04;;;;;;;7.13;2.17;;;;;;;;;;5058744;28;20052;-68
2023/08/10 03:49:30;;;;;;;4.70;2.60;;;13.60;99.90;;;;;;5058156;28;20086;-68
2023/08/10 03:51:56;;;;;;;3.35;2.20;;;;;;;;;;5038855;28;20487;-68
2023/08/10 03:54:22;;;;;;;6.50;2.90;;;;;;;;;;5054198;28;20080;-68
2023/08/10 03:56:47;;;;;;;10.68;2.70;;;13.50;99.90;;;;;;5062969;28;20048;-68
2023/08/10 03:59:13;;;;;;;4.35;2.60;;;;;;;;;;5043784;28;20122;-68
2023/08/10 04:01:39;;;;;;;5.70;2.85;;;14.20;99.90;;;;;;5048208;28;20796;-68
2023/08/10 04:04:05;;;;;;;8.43;2.90;;;13.70;99.90;;;;;;5061800;28;20490;-69
2023/08/10 04:06:31;;;;;;;4.35;2.35;;;13.50;99.90;;;;;;5044465;28;20079;-69
2023/08/10 04:08:57;;;;;;;4.82;2.40;;;;;;;;;;5047180;28;20048;-69
2023/08/10 04:11:23;;;;;;;5.07;2.78;;;13.70;99.90;;;;;;5047751;28;20135;-69
2023/08/10 04:13:48;;;;;;;5.38;2.55;;;13.80;99.90;;;;;;5048430;28;20075;-69
2023/08/10 04:16:15;;;;;;;5.82;2.58;;;;;;;;;;5062197;28;20032;-69
2023/08/10 04:18:40;;;;;;;5.05;3.03;;;13.70;99.90;;;;;;5070209;28;20094;-68
2023/08/10 04:21:06;;;;;;;4.97;2.03;;;13.50;99.90;;;;;;5050594;28;20036;-69
2023/08/10 04:23:32;;;;;;;7.68;2.50;;;13.50;99.90;;;;;;5048482;28;20122;-69
2023/08/10 04:25:58;;;;;;;5.05;2.33;;;;;;;;;;5062929;28;20050;-68
2023/08/10 04:28:25;;;;;;;5.20;2.33;;;;;;;;;;5051140;28;20522;-67
2023/08/10 04:30:50;;;;;;;5.35;2.60;;;;;;;;;;5052381;28;21235;-68
2023/08/10 04:33:16;;;;;;;4.13;1.52;;;;;;;;;;5066691;28;20131;-69
2023/08/10 04:35:42;;;;;;;9.77;1.92;;;;;;;;;;5065699;28;20524;-70
2023/08/10 04:38:10;;;;;;;2.13;1.30;;;;;;;;;;5120240;22;20071;-70
2023/08/10 04:40:36;;;;;;;3.55;1.55;;;;;;;;;;5047712;28;20057;-67
2023/08/10 04:43:02;;;;;;;3.20;1.50;;;13.60;99.90;;;;;;5049701;28;20033;-67
2023/08/10 04:45:27;;;;;;;4.20;1.40;;;;;;;;;;5049073;28;20387;-65
2023/08/10 04:47:54;;;;;;;3.90;1.02;;;;;;;;;;5051073;28;20129;-66
2023/08/10 04:50:20;;;;;;;2.45;1.15;;;;;;;;;;5066658;28;20600;-66
2023/08/10 04:52:46;;;;;;;2.45;1.55;;;;;;;;;;5049573;28;20565;-67
2023/08/10 04:55:12;;;;;;;3.15;1.23;;;;;;;;;;5053537;28;20036;-68
2023/08/10 04:57:39;;;;;;;2.80;1.55;;;13.70;99.90;;;;;;5066118;28;20530;-67
2023/08/10 05:00:13;;;;;;;2.25;1.30;;;13.60;99.90;;;;;;5043738;28;20048;-67
2023/08/10 05:02:39;;;;;;;2.63;1.20;;;;;;;;;;5043471;28;20564;-66
2023/08/10 05:05:06;;;;;;;3.80;1.80;;;13.70;99.90;;;;;;5040534;28;20131;-67
2023/08/10 05:07:39;;;;;;;2.70;1.35;;;;;;;;;;5066734;28;20047;-70
2023/08/10 05:10:07;;;;;;;3.92;1.52;;;13.80;99.90;;;;;;5050090;28;20037;-68
2023/08/10 05:12:35;;;;;;;5.50;2.08;;;13.60;99.90;;;;;;5067246;28;20048;-66
2023/08/10 05:15:01;;;;;;;2.05;1.27;;;;;;;;;;5062240;28;20043;-66
2023/08/10 05:17:27;;;;;;;7.03;1.70;;;;;;;;;;5063691;28;20044;-66
2023/08/10 05:19:52;;;;;;;4.68;1.48;;;13.90;99.90;;;;;;5064158;28;20080;-65
2023/08/10 05:22:19;;;;;;;6.68;2.13;;;;;;;;;;5064168;28;20101;-70
2023/08/10 05:24:45;;;;;;;3.42;1.52;;;14.00;99.90;;;;;;5066634;28;20047;-66
2023/08/10 05:27:10;;;;;;;4.82;1.67;;;;;;;;;;5065730;28;20041;-67
2023/08/10 05:29:36;;;;;;;5.50;1.45;;;;;;;;;;5047411;28;20052;-67
2023/08/10 05:32:11;;;;;;;3.47;1.83;;;;;;;;;;5063286;28;20166;-72
2023/08/10 05:34:37;;;;;;;3.55;1.55;;;;;;;;;;5039526;28;20075;-66
2023/08/10 05:37:03;;;;;;;6.68;2.30;;;;;;;;;;5065418;28;20048;-68
2023/08/10 05:39:29;;;;;;;3.58;1.60;;;;;;;;;;5066586;28;20045;-66
2023/08/10 05:41:55;;;;;;;2.80;1.58;;;14.20;99.90;;;;;;5045217;28;20052;-65
2023/08/10 05:44:21;;;;;;;5.20;1.50;;;;;;;;;;5045413;28;20109;-66
2023/08/10 05:46:48;;;;;;;5.18;1.38;;;;;;;;;;5043787;28;20123;-65
2023/08/10 05:49:14;;;;;;;3.90;1.90;;;;;;;;;;5061356;28;20696;-65
2023/08/10 05:51:40;;;;;;;6.53;2.00;;;;;;;;;;5048043;28;20132;-66
2023/08/10 05:54:06;;;;;;;3.95;1.67;;;;;;;;;;5040826;28;20760;-65
2023/08/10 05:56:32;;;;;;;4.55;1.85;;;;;;;;;;5042425;28;20053;-65
2023/08/10 05:58:58;;;;;;;5.90;1.75;;;;;;;;;;5061457;28;20048;-66
2023/08/10 06:01:24;;;;;;;8.25;1.50;;;;;;;;;;5061017;28;20111;-66
2023/08/10 06:03:50;;;;;;;4.78;1.27;;;;;;;;;;5060101;28;20120;-66
2023/08/10 06:06:16;;;;;;;4.70;1.40;;;;;;;;;;5066249;28;20117;-66
2023/08/10 06:08:42;;;;;;;4.00;1.20;;;15.70;99.90;;;;;;5062189;28;20502;-64
2023/08/10 06:11:08;;;;;;;6.28;2.20;;;;;;;;;;5064630;28;20035;-67
2023/08/10 06:13:35;;;;;;;3.17;1.15;;;;;;;;;;5048021;28;20052;-67
2023/08/10 06:16:01;;;;;;;4.60;1.08;;;;;;;;;;5064379;28;20044;-67
2023/08/10 06:18:27;;;;;;;7.15;1.77;;;;;;;;;;5066098;28;20044;-67
2023/08/10 06:20:53;;;;;;;6.30;1.40;;;;;;;;;;5059695;28;20048;-68
2023/08/10 06:23:19;;;;;;;4.25;1.10;;;;;;;;;;5029603;28;20710;-66
2023/08/10 06:25:47;;;;;;;2.67;1.10;;;;;;;;;;5043261;28;20044;-67
2023/08/10 06:28:13;;;;;;;7.93;1.42;;;;;;;;;;5041878;28;20045;-67
2023/08/10 06:30:40;;;;;;;5.60;1.98;;;;;;;;;;5044538;28;20048;-67
2023/08/10 06:33:07;;;;;;;3.47;1.60;;;;;;;;;;5044982;28;20529;-68
2023/08/10 06:35:35;;;;;;;5.60;1.38;;;18.10;99.90;;;;;;5056270;28;20060;-69
2023/08/10 06:38:04;;;;;;;2.10;0.90;;;18.80;99.90;;;;;;5063552;28;20040;-68
2023/08/10 06:40:31;;;;;;;6.32;0.90;;;19.80;99.90;;;;;;5058863;28;20049;-68
2023/08/10 06:42:58;;;;;;;5.03;1.40;;;20.30;99.90;;;;;;5052859;28;20131;-66
2023/08/10 06:45:23;;;;;;;3.13;0.95;;;22.30;99.90;;;;;;5056172;28;20078;-68
2023/08/10 06:47:49;;;;;;;5.43;1.00;;;21.30;99.90;;;;;;5061845;28;20770;-69
2023/08/10 06:50:16;;;;;;;4.63;1.08;;;21.40;99.90;;;;;;5044824;28;20509;-67
2023/08/10 06:52:56;;;;;;;4.80;0.95;;;21.40;99.90;;;;;;5037333;28;20481;-68
2023/08/10 06:55:22;;;;;;;2.38;0.77;;;21.70;99.90;;;;;;5056943;28;20123;-69
2023/08/10 06:57:48;;;;;;;2.72;0.50;;;22.20;99.90;;;;;;5052152;28;20462;-68
2023/08/10 07:00:19;;;;;;;3.63;0.60;;;22.50;99.90;;;;;;5051493;28;20074;-68
2023/08/10 07:02:45;;;;;;;3.60;0.70;;;23.40;99.90;;;;;;5034437;28;20047;-69
2023/08/10 07:05:10;;;;;;;2.88;0.70;;;23.40;99.90;;;;;;5038451;28;20076;-67
2023/08/10 07:07:36;;;;;;;2.78;0.50;;;24.10;99.90;;;;;;5053445;28;20048;-68
2023/08/10 07:10:05;;;;;;;2.03;0.30;;;22.40;99.90;;;;;;5054988;28;20040;-68
2023/08/10 07:12:30;;;;;;;2.38;0.50;;;21.80;99.90;;;;;;5058103;28;21240;-67
2023/08/10 07:14:56;;;;;;;1.90;0.50;;;22.00;99.90;;;;;;5052813;28;20025;-69
2023/08/10 07:17:21;;;;;;;4.43;0.82;;;20.80;99.90;;;;;;5059445;28;20043;-67
2023/08/10 07:19:47;;;;;;;5.90;0.55;;;19.40;99.90;;;;;;5042020;28;20613;-67
2023/08/10 07:22:13;;;;;;;5.50;0.57;;;19.20;99.90;;;;;;5056548;28;20055;-68
2023/08/10 07:24:39;;;;;;;3.50;0.68;;;18.80;99.90;;;;;;5059327;28;20045;-66
2023/08/10 07:27:04;;;;;;;7.57;0.70;;;18.40;99.90;;;;;;5064266;28;20378;-68
2023/08/10 07:29:30;;;;;;;3.97;0.73;;;18.20;99.90;;;;;;5037826;28;20162;-68
2023/08/10 07:32:00;;;;;;;1.90;0.47;;;18.00;99.90;;;;;;5044406;28;20454;-68
2023/08/10 07:34:27;;;;;;;4.82;0.80;;;18.00;99.90;;;;;;5044666;28;20062;-68
2023/08/10 07:36:54;;;;;;;4.53;0.90;;;17.70;99.90;;;;;;5053724;28;20049;-67
2023/08/10 07:39:20;;;;;;;4.13;0.63;;;;;;;;;;5062773;28;20570;-68
2023/08/10 07:41:46;;;;;;;3.35;0.80;;;;;;;;;;5062059;28;20044;-67
2023/08/10 07:44:12;;;;;;;3.35;0.93;;;;;;;;;;5060836;28;20033;-67
2023/08/10 07:46:37;;;;;;;5.32;0.70;;;;;;;;;;5042973;28;20049;-68
2023/08/10 07:49:03;;;;;;;3.60;0.60;;;17.40;99.90;;;;;;5057795;28;20033;-67
2023/08/10 07:51:29;;;;;;;3.10;0.77;;;;;;;;;;5059440;28;20037;-67
2023/08/10 07:53:55;;;;;;;5.82;1.13;;;;;;;;;;5042221;28;20055;-68
2023/08/10 07:56:21;;;;;;;8.52;0.68;;;17.10;99.90;;;;;;5061722;28;20037;-67
2023/08/10 07:58:47;;;;;;;5.28;1.40;;;;;;;;;;5027265;28;20045;-68
2023/08/10 08:01:14;;;;;;;2.45;1.05;;;;;;;;;;5059492;28;20697;-67
2023/08/10 08:03:40;;;;;;;8.32;1.20;;;;;;;;;;5046551;28;20638;-67
2023/08/10 08:06:06;;;;;;;5.75;0.70;;;17.20;99.90;;;;;;5061628;28;20044;-67
2023/08/10 08:08:32;;;;;;;5.15;0.88;;;;;;;;;;5066462;28;20437;-68
2023/08/10 08:10:58;;;;;;;1.00;0.60;;;;;;;;;;5064416;28;20036;-67
2023/08/10 08:13:23;;;;;;;2.47;0.90;;;17.10;99.90;;;;;;5064716;28;20524;-67
2023/08/10 08:15:49;;;;;;;4.20;0.95;;;17.00;99.90;;;;;;5060531;28;20076;-67
2023/08/10 08:18:41;;;;;;;3.30;1.00;;;17.10;99.90;;;;;;5047965;28;20105;-68
2023/08/10 08:21:09;;;;;;;5.30;1.05;;;17.20;99.90;;;;;;5044459;28;20052;-68
2023/08/10 08:23:34;;;;;;;5.32;1.17;;;17.30;99.90;;;;;;5066847;28;20040;-68
2023/08/10 08:26:00;;;;;;;5.30;1.05;;;;;;;;;;5060725;28;20198;-67
2023/08/10 08:28:26;;;;;;;4.57;1.15;;;;;;;;;;5061007;28;20069;-68
2023/08/10 08:30:53;;;;;;;2.83;1.02;;;;;;;;;;5046650;28;20087;-67
2023/08/10 08:33:19;;;;;;;5.57;1.40;;;17.30;99.90;;;;;;5064758;28;20492;-68
2023/08/10 08:35:46;;;;;;;4.03;1.02;;;17.30;99.90;;;;;;5067001;28;20047;-67
2023/08/10 08:38:15;;;;;;;4.63;1.10;;;17.50;99.90;;;;;;5063430;28;20049;-68
2023/08/10 08:40:42;;;;;;;4.18;1.30;;;17.20;99.90;;;;;;5059956;28;20061;-68
2023/08/10 08:43:09;;;;;;;7.30;1.95;;;17.30;99.90;;;;;;5066850;28;20044;-67
2023/08/10 08:45:35;;;;;;;5.03;1.33;;;17.20;99.90;;;;;;5042781;28;20127;-67
2023/08/10 08:48:03;;;;;;;4.32;1.23;;;17.30;99.90;;;;;;5059079;28;20136;-67
2023/08/10 08:50:29;;;;;;;5.72;1.40;;;;;;;;;;5043440;28;20032;-67
2023/08/10 08:52:55;;;;;;;2.70;1.00;;;17.30;99.90;;;;;;5044177;28;20055;-67
2023/08/10 08:55:21;;;;;;;4.63;1.58;;;17.30;99.90;;;;;;5058370;28;20040;-68
2023/08/10 08:57:49;;;;;;;3.22;1.30;;;;;;;;;;5065227;28;20071;-69
2023/08/10 09:00:15;;;;;;;6.25;1.65;;;17.30;99.90;;;;;;5059723;28;20555;-66
2023/08/10 09:02:41;;;;;;;8.77;1.48;;;17.30;99.90;;;;;;5042253;28;20052;-66
2023/08/10 09:05:08;;;;;;;4.57;1.20;;;17.40;99.90;;;;;;5059513;28;20122;-67
2023/08/10 09:07:34;;;;;;;5.65;1.25;;;17.20;99.90;;;;;;5061525;28;20045;-67
2023/08/10 09:10:00;;;;;;;4.65;1.70;;;;;;;;;;5064250;28;20127;-66
2023/08/10 09:12:29;;;;;;;3.15;1.35;;;17.30;99.90;;;;;;5063527;28;20072;-66
2023/08/10 09:15:11;;;;;;;3.92;1.23;;;17.40;99.90;;;;;;5062545;28;20048;-66
2023/08/10 09:17:48;;;;;;;6.10;1.52;;;17.10;99.90;;;;;;5023631;28;20554;-66
2023/08/10 09:20:22;;;;;;;4.00;1.40;;;17.30;99.90;;;;;;5040824;28;20044;-66
2023/08/10 09:22:56;;;;;;;7.00;1.50;;;17.20;99.90;;;;;;5050876;28;20037;-67
2023/08/10 09:25:24;;;;;;;4.55;1.38;;;17.30;99.90;;;;;;5062494;28;20045;-68
2023/08/10 09:27:50;;;;;;;6.05;1.70;;;17.50;99.90;;;;;;5062458;28;20482;-68
2023/08/10 09:30:17;;;;;;;3.35;1.55;;;17.40;99.90;;;;;;5043135;28;20817;-66
2023/08/10 09:32:43;;;;;;;7.88;1.45;;;;;;;;;;5060337;28;20045;-68
2023/08/10 09:35:17;;;;;;;4.38;1.48;;;17.70;99.90;;;;;;5066162;28;20048;-65
2023/08/10 09:37:44;;;;;;;3.97;1.50;;;;;;;;;;5064522;28;20729;-68
2023/08/10 09:40:14;;;;;;;5.40;1.40;;;17.40;99.90;;;;;;5056776;28;20503;-67
2023/08/10 09:42:40;;;;;;;11.70;1.83;;;;;;;;;;5066061;28;20059;-67
2023/08/10 09:45:11;;;;;;;4.05;1.05;;;17.70;99.90;;;;;;5045909;28;20587;-67
2023/08/10 09:47:39;;;;;;;4.15;1.00;;;17.60;99.90;;;;;;5053401;28;20175;-67
2023/08/10 09:50:12;;;;;;;6.63;1.77;;;17.60;99.90;;;;;;5035858;28;20125;-68
2023/08/10 09:52:38;;;;;;;7.03;1.45;;;17.60;99.90;;;;;;5050904;28;20033;-68
2023/08/10 09:55:06;;;;;;;3.35;1.10;;;17.70;99.90;;;;;;5037823;28;20521;-67
2023/08/10 09:57:32;;;;;;;3.50;1.13;;;17.70;99.90;;;;;;5054168;28;20059;-67
2023/08/10 09:59:58;;;;;;;7.30;1.02;;;;;;;;;;5046789;28;20390;-67
2023/08/10 10:02:25;;;;;;;6.03;1.30;;;17.60;99.90;;;;;;5050779;28;20048;-67
2023/08/10 10:04:51;;;;;;;3.78;1.60;;;17.40;99.90;;;;;;5051075;28;20049;-67
2023/08/10 10:07:23;;;;;;;7.00;1.40;;;17.60;99.90;;;;;;5064201;28;20090;-66
2023/08/10 10:09:50;;;;;;;4.22;1.10;;;17.60;99.90;;;;;;5064899;28;20036;-67
2023/08/10 10:12:16;;;;;;;3.83;1.42;;;;;;;;;;5062078;28;20040;-67
2023/08/10 10:14:44;;;;;;;5.13;1.27;;;17.70;99.90;;;;;;5045034;28;20055;-68
2023/08/10 10:17:17;;;;;;;5.82;1.35;;;17.60;99.90;;;;;;5062030;28;20498;-68
2023/08/10 10:19:51;;;;;;;4.78;1.38;;;17.80;99.90;;;;;;5056178;28;20056;-68
2023/08/10 10:22:18;;;;;;;4.72;1.17;;;17.90;99.90;;;;;;5062248;28;20484;-67
2023/08/10 10:24:44;;;;;;;6.00;1.33;;;;;;;;;;5053522;28;20037;-67
2023/08/10 10:27:12;;;;;;;5.80;1.70;;;18.10;99.90;;;;;;5055534;28;20040;-66
2023/08/10 10:30:00;;;;;;;6.28;2.00;;;18.10;99.90;;;;;;5058321;28;20036;-66
2023/08/10 10:32:49;;;;;;;6.03;2.03;;;17.90;99.90;;;;;;5045541;28;20051;-66
2023/08/10 10:35:21;;;;;;;5.38;1.50;;;18.10;99.90;;;;;;5055387;28;20064;-66
2023/08/10 10:37:55;;;;;;;4.38;1.50;;;18.10;99.90;;;;;;5064410;28;20040;-66
2023/08/10 10:40:23;;;;;;;4.22;1.42;;;18.10;99.90;;;;;;5060576;28;20052;-68
2023/08/10 10:43:03;;;;;;;5.60;1.27;;;17.90;99.90;;;;;;5060600;28;20372;-67
2023/08/10 10:45:42;;;;;;;3.20;1.65;;;18.10;99.90;;;;;;5031935;28;20055;-66
2023/08/10 10:48:12;;;;;;;5.30;1.48;;;18.00;99.90;;;;;;5060958;28;20037;-66
2023/08/10 10:50:38;;;;;;;4.50;1.55;;;;;;;;;;5063399;28;20042;-67
2023/08/10 10:53:06;;;;;;;5.60;1.55;;;18.00;99.90;;;;;;5043997;28;20386;-68
2023/08/10 10:55:34;;;;;;;3.50;1.70;;;17.90;99.90;;;;;;5038403;28;20438;-67
2023/08/10 10:58:05;;;;;;;6.97;2.03;;;18.00;99.90;;;;;;5060824;28;21287;-67
2023/08/10 11:00:34;;;;;;;4.57;1.48;;;18.10;99.90;;;;;;5045083;28;20426;-67
2023/08/10 11:03:02;;;;;;;4.30;1.52;;;18.10;99.90;;;;;;5059669;28;20041;-66
2023/08/10 11:05:28;;;;;;;7.05;1.80;;;18.20;99.90;;;;;;5044592;28;20068;-67
2023/08/10 11:07:55;;;;;;;5.47;1.63;;;18.20;99.90;;;;;;5056832;28;20430;-69
2023/08/10 11:10:24;;;;;;;4.60;1.60;;;18.40;99.90;;;;;;5045304;28;20134;-68
2023/08/10 11:12:56;;;;;;;4.30;1.70;;;18.50;99.90;;;;;;5038199;28;20589;-68
2023/08/10 11:15:22;;;;;;;4.22;2.13;;;;;;;;;;5058005;28;20047;-69
2023/08/10 11:17:50;;;;;;;6.50;1.40;;;18.20;99.90;;;;;;5035025;28;20044;-68
2023/08/10 11:20:17;;;;;;;2.72;1.25;;;;;;;;;;5049511;28;20668;-68
2023/08/10 11:22:44;;;;;;;4.43;1.30;;;18.30;99.90;;;;;;5051691;28;20049;-68
2023/08/10 11:25:19;;;;;;;6.47;1.40;;;18.50;99.90;;;;;;5050888;28;20036;-68
2023/08/10 11:27:47;;;;;;;5.35;1.65;;;18.40;99.90;;;;;;5057656;28;20037;-67
2023/08/10 11:30:15;;;;;;;5.07;1.52;;;18.50;99.90;;;;;;5033277;28;20052;-66
2023/08/10 11:32:49;;;;;;;7.40;2.17;;;18.80;99.90;;;;;;5058028;28;20048;-66
2023/08/10 11:35:18;;;;;;;5.53;1.75;;;18.60;99.90;;;;;;5038548;28;20550;-66
2023/08/10 11:37:44;;;;;;;6.65;2.10;;;;;;;;;;5042109;28;20229;-68
2023/08/10 11:40:17;;;;;;;6.07;2.72;;;18.40;99.90;;;;;;5055128;28;20162;-67
2023/08/10 11:42:48;;;;;;;4.65;1.92;;;18.60;99.90;;;;;;5039677;28;20546;-68
2023/08/10 11:45:17;;;;;;;4.90;3.15;;;18.70;99.90;;;;;;5037985;28;20036;-67
2023/08/10 11:47:53;;;;;;;5.32;1.98;;;18.80;99.90;;;;;;5057182;28;20082;-66
2023/08/10 11:50:20;;;;;;;7.18;2.38;;;18.60;99.90;;;;;;5053010;28;20558;-66
2023/08/10 11:53:25;;;;;;;6.88;2.30;;;18.90;99.90;;;;;;5060563;28;20044;-66
2023/08/10 11:55:51;;;;;;;5.65;1.90;;;18.80;99.90;;;;;;5034236;28;20056;-66
2023/08/10 11:58:19;;;;;;;7.35;2.63;;;19.00;99.90;;;;;;5054026;28;20089;-66
2023/08/10 12:00:50;;;;;;;6.13;2.22;;;18.90;99.90;;;;;;5051979;28;20044;-66
2023/08/10 12:03:18;;;;;;;8.43;2.85;;;19.00;99.90;;;;;;5052447;28;20044;-66
2023/08/10 12:05:45;;;;;;;7.97;3.03;;;19.10;99.90;;;;;;5033143;28;20041;-65
2023/08/10 12:08:13;;;;;;;8.90;2.70;;;19.10;99.90;;;;;;5061322;28;20055;-66
2023/08/10 12:10:44;;;;;;;4.47;2.58;;;19.30;99.90;;;;;;5057086;28;20045;-66
2023/08/10 12:13:13;;;;;;;8.68;2.50;;;19.30;99.90;;;;;;5056767;28;20383;-67
2023/08/10 12:15:49;;;;;;;3.70;2.33;;;19.30;99.90;;;;;;5059066;28;20048;-66
2023/08/10 12:18:17;;;;;;;3.35;2.45;;;19.70;99.90;;;;;;5050753;28;20082;-66
2023/08/10 12:20:43;;;;;;;5.72;2.72;;;19.70;99.90;;;;;;5059205;28;20033;-67
2023/08/10 12:23:10;;;;;;;4.50;2.20;;;19.80;99.90;;;;;;5039524;28;20056;-67
2023/08/10 12:25:36;;;;;;;4.28;2.45;;;19.80;99.90;;;;;;5043084;28;20050;-68
2023/08/10 12:28:02;;;;;;;6.35;3.05;;;19.90;99.90;;;;;;5042850;28;20124;-67
2023/08/10 12:30:28;;;;;;;9.80;3.25;;;20.00;99.90;;;;;;5052058;28;20044;-66
2023/08/10 12:32:53;;;;;;;4.47;2.80;;;19.90;99.90;;;;;;5061818;28;20086;-67
2023/08/10 12:35:19;;;;;;;5.85;2.70;;;20.20;99.90;;;;;;5063448;28;20094;-67
2023/08/10 12:37:46;;;;;;;7.50;2.92;;;20.00;99.90;;;;;;5062230;28;20033;-68
2023/08/10 12:40:12;;;;;;;8.13;3.70;;;20.00;99.90;;;;;;5048227;28;20161;-69
2023/08/10 12:42:38;;;;;;;5.55;2.67;;;19.90;99.90;;;;;;5059776;28;20441;-69
2023/08/10 12:45:05;;;;;;;6.93;3.38;;;19.90;99.90;;;;;;5064463;28;20040;-68
2023/08/10 12:47:30;;;;;;;6.97;3.28;;;20.00;99.90;;;;;;5061545;28;20040;-68
2023/08/10 12:49:56;;;;;;;4.97;2.55;;;19.90;99.90;;;;;;5045474;28;20532;-69
2023/08/10 12:52:21;;;;;;;5.30;2.38;;;19.80;99.90;;;;;;5064822;28;20028;-69
2023/08/10 12:54:47;;;;;;;5.05;2.72;;;19.80;99.90;;;;;;5063714;28;20070;-68
2023/08/10 12:57:13;;;;;;;6.63;3.05;;;19.80;99.90;;;;;;5039598;28;20071;-67
2023/08/10 12:59:38;;;;;;;4.35;3.22;;;19.90;99.90;;;;;;5061720;28;20059;-67
2023/08/10 13:02:04;;;;;;;6.28;2.97;;;20.00;99.90;;;;;;5066797;28;20119;-66
2023/08/10 13:04:29;;;;;;;5.40;3.30;;;19.70;99.90;;;;;;5045660;28;20119;-66
2023/08/10 13:06:55;;;;;;;4.47;2.63;;;19.80;99.90;;;;;;5056552;28;20028;-66
2023/08/10 13:09:22;;;;;;;3.33;2.58;;;19.80;99.90;;;;;;5046877;28;20465;-66
2023/08/10 13:11:48;;;;;;;7.60;3.33;;;19.80;99.90;;;;;;5052034;28;20102;-66
2023/08/10 13:14:14;;;;;;;5.47;2.83;;;19.90;99.90;;;;;;5043959;28;20057;-66
2023/08/10 13:16:39;;;;;;;5.40;2.38;;;21.60;99.90;;;;;;5059623;28;20053;-66
2023/08/10 13:19:08;;;;;;;5.28;2.83;;;20.00;99.90;;;;;;5059233;28;20796;-66
2023/08/10 13:21:35;;;;;;;5.50;3.08;;;20.30;99.90;;;;;;5058478;28;20036;-69
2023/08/10 13:24:01;;;;;;;9.98;3.45;;;20.50;99.90;;;;;;5062257;28;20049;-67
2023/08/10 13:26:27;;;;;;;7.05;3.30;;;20.40;99.90;;;;;;5042860;28;20435;-67
2023/08/10 13:28:53;;;;;;;6.63;3.20;;;20.50;99.90;;;;;;5057041;28;20037;-67